Flight Track Log - Related Links

Times and Time Zones

All times are in EDT time to prevent confusion due to time zone crossing. See the AAL963 flight status page for this flight to view local times or setup timezone preferences in your user account.

Time Position Orientation Groundspeed Altitude Reporting Facility
EDT Latitude Longitude Course Direction KTS MPH feet Rate Location/Type
Sun 09:08:22 PM 32.8540 -97.0510 180° South 188 216 2,200  Level FlightAware ADS-B
Sun 09:08:37 PM 32.8380 -97.0520 183° South 213 245 2,400 1,350 Climbing FlightAware ADS-B
Sun 09:09:02 PM 32.8120 -97.0520 180° South 233 268 3,100 1,964 Climbing FlightAware ADS-B
Sun 09:09:32 PM 32.7790 -97.0530 181° South 243 280 4,200 2,100 Climbing FlightAware ADS-B
Sun 09:10:02 PM 32.7450 -97.0530 180° South 255 293 5,200 2,073 Climbing FlightAware ADS-B
Sun 09:10:27 PM 32.7160 -97.0540 182° South 256 295 6,100 1,855 Climbing FlightAware ADS-B
Sun 09:10:57 PM 32.6780 -97.0550 181° South 272 313 6,900 1,800 Climbing FlightAware ADS-B
Sun 09:11:27 PM 32.6420 -97.0550 180° South 277 319 7,900 1,800 Climbing FlightAware ADS-B
Sun 09:12:07 PM 32.5890 -97.0430 169° South 294 338 9,000 1,800 Climbing FlightAware ADS-B
Sun 09:12:47 PM 32.5410 -97.0060 147° Southeast 303 349 10,300 1,129 Climbing FlightAware ADS-B
Sun 09:13:32 PM 32.4830 -96.9620 147° Southeast 356 410 10,600 706 Climbing FlightAware ADS-B
Sun 09:14:12 PM 32.4250 -96.9190 148° Southeast 388 447 11,300 1,624 Climbing FlightAware ADS-B
Sun 09:14:57 PM 32.3550 -96.8670 148° Southeast 400 460 12,900 1,976 Climbing FlightAware ADS-B
Sun 09:15:37 PM 32.2920 -96.8220 149° Southeast 419 482 14,100 2,775 Climbing FlightAware ADS-B
Sun 09:16:17 PM 32.2230 -96.7910 159° South 398 458 16,600 2,471 Climbing FlightAware ADS-B
Sun 09:17:02 PM 32.1400 -96.7600 162° South 422 486 17,600 1,645 Climbing FlightAware ADS-B
Sun 09:17:19 PM 32.1031 -96.7462 162° South 426 490 18,300 2,000 Climbing FlightAware ADS-B
Sun 09:17:50 PM 32.0442 -96.7240 162° South 435 501 19,200 1,905 Climbing FlightAware ADS-B
Sun 09:18:22 PM 31.9830 -96.7008 162° South 437 503 20,300 1,935 Climbing FlightAware ADS-B
Sun 09:18:52 PM 31.9241 -96.6785 162° South 442 509 21,200 1,839 Climbing FlightAware ADS-B
Sun 09:19:24 PM 31.8611 -96.6544 162° South 452 520 22,200 1,957 Climbing FlightAware ADS-B
Sun 09:19:38 PM 31.8327 -96.6428 161° South 452 520 22,700 1,800 Climbing FlightAware ADS-B
Sun 09:19:54 PM 31.8003 -96.6293 160° South 454 522 23,100 1,636 Climbing FlightAware ADS-B
Sun 09:20:11 PM 31.7663 -96.6151 160° South 455 524 23,600 1,600 Climbing FlightAware ADS-B
Sun 09:20:24 PM 31.7404 -96.6043 160° South 460 529 23,900 1,355 Climbing FlightAware ADS-B
Sun 09:20:42 PM 31.7052 -96.5898 161° South 465 535 24,300 1,313 Climbing FlightAware ADS-B
Sun 09:20:56 PM 31.6764 -96.5780 161° South 468 539 24,600 1,297 Climbing FlightAware ADS-B
Sun 09:21:19 PM 31.6296 -96.5590 161° South 472 543 25,100 1,355 Climbing FlightAware ADS-B
Sun 09:21:27 PM 31.6116 -96.5515 160° South 476 548 25,300 1,200 Climbing FlightAware ADS-B
Sun 09:21:49 PM 31.5663 -96.5331 161° South 481 554 25,700 1,200 Climbing FlightAware ADS-B
Sun 09:21:57 PM 31.5484 -96.5259 161° South 482 555 25,900 1,500 Climbing FlightAware ADS-B
Sun 09:22:21 PM 31.4991 -96.5060 161° South 484 557 26,500 1,400 Climbing FlightAware ADS-B
Sun 09:22:27 PM 31.4848 -96.5005 162° South 485 558 26,600 1,200 Climbing FlightAware ADS-B
Sun 09:22:51 PM 31.4348 -96.4819 162° South 487 560 27,100 1,355 Climbing FlightAware ADS-B
Sun 09:22:58 PM 31.4182 -96.4758 163° South 488 562 27,300 1,400 Climbing FlightAware ADS-B
Sun 09:23:21 PM 31.3685 -96.4577 163° South 492 566 27,800 1,200 Climbing FlightAware ADS-B
Sun 09:23:28 PM 31.3528 -96.4518 162° South 493 567 27,900 1,161 Climbing FlightAware ADS-B
Sun 09:23:52 PM 31.3017 -96.4330 163° South 497 572 28,400 1,161 Climbing FlightAware ADS-B
Sun 09:23:59 PM 31.2852 -96.4269 162° South 497 572 28,500 800 Climbing FlightAware ADS-B
Sun 09:24:22 PM 31.2350 -96.4082 162° South 502 578 28,800 857 Climbing FlightAware ADS-B
Sun 09:24:27 PM 31.2252 -96.4045 162° South 503 579 28,900 1,714 Climbing FlightAware ADS-B
Sun 09:24:29 PM 31.2189 -96.4018 160° South 505 581 29,000 1,333 Climbing FlightAware ADS-B
Sun 09:24:36 PM 31.2040 -96.3944 157° South 509 586 29,100 667 Climbing FlightAware ADS-B
Sun 09:24:38 PM 31.1993 -96.3917 154° Southeast 510 587 29,100  Level FlightAware ADS-B
Sun 09:24:41 PM 31.1933 -96.3880 152° Southeast 511 588 29,100 545 Level FlightAware ADS-B
Sun 09:24:49 PM 31.1770 -96.3765 149° Southeast 516 594 29,200 1,091 Climbing FlightAware ADS-B
Sun 09:24:52 PM 31.1711 -96.3717 145° Southeast 518 596 29,300 857 Climbing FlightAware ADS-B
Sun 09:24:56 PM 31.1633 -96.3647 142° Southeast 520 598 29,300 857 Level FlightAware ADS-B
Sun 09:24:59 PM 31.1585 -96.3600 140° Southeast 520 598 29,400 750 Climbing FlightAware ADS-B
Sun 09:25:04 PM 31.1501 -96.3510 137° Southeast 522 601 29,400 857 Level FlightAware ADS-B
Sun 09:25:06 PM 31.1461 -96.3466 137° Southeast 523 602 29,500 1,500 Climbing FlightAware ADS-B
Sun 09:25:12 PM 31.1355 -96.3331 133° Southeast 525 604 29,600 968 Climbing FlightAware ADS-B
Sun 09:25:37 PM 31.1004 -96.2781 127° Southeast 528 608 30,000 968 Climbing FlightAware ADS-B
Sun 09:25:43 PM 31.0915 -96.2639 126° Southeast 528 608 30,100 1,600 Climbing FlightAware ADS-B
Sun 09:26:07 PM 31.0572 -96.2077 125° Southeast 525 604 30,800 1,742 Climbing FlightAware ADS-B
Sun 09:26:14 PM 31.0481 -96.1928 125° Southeast 524 603 31,000 1,313 Climbing FlightAware ADS-B
Sun 09:26:39 PM 31.0132 -96.1354 125° Southeast 524 603 31,500 1,000 Climbing FlightAware ADS-B
Sun 09:26:44 PM 31.0054 -96.1227 126° Southeast 526 605 31,500 600 Level FlightAware ADS-B
Sun 09:27:09 PM 30.9702 -96.0652 126° Southeast 531 611 31,800 800 Climbing FlightAware ADS-B
Sun 09:27:14 PM 30.9625 -96.0526 125° Southeast 532 612 31,900 1,000 Climbing FlightAware ADS-B
Sun 09:27:39 PM 30.9273 -95.9954 126° Southeast 532 612 32,300 1,000 Climbing FlightAware ADS-B
Sun 09:27:44 PM 30.9197 -95.9831 126° Southeast 531 611 32,400 1,313 Climbing FlightAware ADS-B
Sun 09:28:11 PM 30.8816 -95.9215 126° Southeast 530 610 33,000 1,161 Climbing FlightAware ADS-B
Sun 09:28:15 PM 30.8763 -95.9130 126° Southeast 529 609 33,000 1,000 Level FlightAware ADS-B
Sun 09:28:41 PM 30.8383 -95.8517 126° Southeast 527 606 33,500 1,200 Climbing FlightAware ADS-B
Sun 09:28:45 PM 30.8333 -95.8436 126° Southeast 528 608 33,600 800 Climbing FlightAware ADS-B
Sun 09:29:11 PM 30.7950 -95.7820 126° Southeast 529 609 33,900 600 Climbing FlightAware ADS-B
Sun 09:29:15 PM 30.7898 -95.7737 126° Southeast 530 610 33,900 387 Level FlightAware ADS-B
Sun 09:29:42 PM 30.7508 -95.7112 126° Southeast 534 615 34,100 387 Climbing FlightAware ADS-B
Sun 09:29:46 PM 30.7457 -95.7031 126° Southeast 534 615 34,100 800 Level FlightAware ADS-B
Sun 09:30:12 PM 30.7071 -95.6411 126° Southeast 534 615 34,500 800 Climbing FlightAware ADS-B
Sun 09:30:16 PM 30.7023 -95.6334 126° Southeast 535 616 34,500 600 Level FlightAware ADS-B
Sun 09:30:42 PM 30.6632 -95.5709 126° Southeast 536 617 34,800 800 Climbing FlightAware ADS-B
Sun 09:30:46 PM 30.6575 -95.5618 126° Southeast 536 617 34,900 387 Climbing FlightAware ADS-B
Sun 09:31:13 PM 30.6193 -95.5007 126° Southeast 535 616 35,000 188 Climbing FlightAware ADS-B
Sun 09:31:18 PM 30.6120 -95.4891 126° Southeast 535 616 35,000  Level FlightAware ADS-B
Sun 09:31:45 PM 30.5726 -95.4260 126° Southeast 535 616 35,000  Level FlightAware ADS-B
Sun 09:31:48 PM 30.5676 -95.4181 126° Southeast 533 613 35,000  Level FlightAware ADS-B
Sun 09:32:15 PM 30.5284 -95.3557 126° Southeast 534 615 35,000  Level FlightAware ADS-B
Sun 09:32:19 PM 30.5230 -95.3471 126° Southeast 534 615 35,000  Level FlightAware ADS-B
Sun 09:32:45 PM 30.4844 -95.2858 126° Southeast 535 616 35,000  Level FlightAware ADS-B
Sun 09:32:49 PM 30.4793 -95.2777 126° Southeast 535 616 35,000  Level FlightAware ADS-B
Sun 09:33:15 PM 30.4406 -95.2162 126° Southeast 537 618 35,000  Level FlightAware ADS-B
Sun 09:33:19 PM 30.4352 -95.2076 126° Southeast 537 618 35,000  Level FlightAware ADS-B
Sun 09:33:45 PM 30.3964 -95.1462 126° Southeast 540 621 35,000  Level FlightAware ADS-B
Sun 09:33:50 PM 30.3905 -95.1369 126° Southeast 540 621 35,000  Level FlightAware ADS-B
Sun 09:34:16 PM 30.3508 -95.0742 126° Southeast 541 623 35,000  Level FlightAware ADS-B
Sun 09:34:20 PM 30.3452 -95.0653 126° Southeast 540 621 35,000  Level FlightAware ADS-B
Sun 09:34:47 PM 30.3065 -95.0041 126° Southeast 542 624 35,000  Level FlightAware ADS-B
Sun 09:34:53 PM 30.2972 -94.9894 126° Southeast 542 624 35,000  Level FlightAware ADS-B
Sun 09:35:17 PM 30.2619 -94.9338 126° Southeast 542 624 35,000  Level FlightAware ADS-B
Sun 09:35:23 PM 30.2524 -94.9189 126° Southeast 542 624 35,000  Level FlightAware ADS-B
Sun 09:35:47 PM 30.2174 -94.8637 126° Southeast 543 625 35,000  Level FlightAware ADS-B
Sun 09:35:55 PM 30.2051 -94.8444 126° Southeast 543 625 35,000  Level FlightAware ADS-B
Sun 09:36:17 PM 30.1726 -94.7933 126° Southeast 543 625 35,000  Level FlightAware ADS-B
Sun 09:36:27 PM 30.1566 -94.7683 127° Southeast 542 624 35,000  Level FlightAware ADS-B
Sun 09:36:47 PM 30.1280 -94.7234 126° Southeast 542 624 35,000  Level FlightAware ADS-B
Sun 09:36:59 PM 30.1097 -94.6947 126° Southeast 542 624 35,000  Level FlightAware ADS-B
Sun 09:37:17 PM 30.0828 -94.6527 127° Southeast 542 624 35,000  Level FlightAware ADS-B
Sun 09:37:32 PM 30.0603 -94.6175 126° Southeast 542 624 35,000  Level FlightAware ADS-B
Sun 09:37:47 PM 30.0377 -94.5822 126° Southeast 541 623 35,000  Level FlightAware ADS-B
Sun 09:38:03 PM 30.0151 -94.5469 126° Southeast 542 624 35,000  Level FlightAware ADS-B
Sun 09:38:18 PM 29.9927 -94.5120 127° Southeast 541 623 35,000  Level FlightAware ADS-B
Sun 09:38:33 PM 29.9696 -94.4760 127° Southeast 543 625 35,000  Level FlightAware ADS-B
Sun 09:38:48 PM 29.9475 -94.4416 127° Southeast 543 625 35,000  Level FlightAware ADS-B
Sun 09:39:03 PM 29.9243 -94.4055 127° Southeast 543 625 35,000  Level FlightAware ADS-B
Sun 09:39:18 PM 29.9023 -94.3713 127° Southeast 543 625 35,000  Level FlightAware ADS-B
Sun 09:39:34 PM 29.8792 -94.3356 127° Southeast 544 626 35,000  Level FlightAware ADS-B
Sun 09:39:49 PM 29.8568 -94.3007 126° Southeast 544 626 35,000  Level FlightAware ADS-B
Sun 09:40:04 PM 29.8338 -94.2652 127° Southeast 543 625 35,000  Level FlightAware ADS-B
Sun 09:40:19 PM 29.8108 -94.2294 127° Southeast 543 625 35,000  Level FlightAware ADS-B
Sun 09:40:34 PM 29.7888 -94.1954 127° Southeast 543 625 35,000  Level FlightAware ADS-B
Sun 09:40:49 PM 29.7654 -94.1593 127° Southeast 542 624 35,000  Level FlightAware ADS-B
Sun 09:41:05 PM 29.7427 -94.1242 127° Southeast 542 624 35,000  Level FlightAware ADS-B
Sun 09:41:19 PM 29.7211 -94.0911 127° Southeast 540 621 35,000  Level FlightAware ADS-B
Sun 09:41:21 PM 29.7186 -94.0874 128° Southeast 539 620 35,000  Level FlightAware ADS-B
Sun 09:41:36 PM 29.6938 -94.0546 131° Southeast 532 612 35,000  Level FlightAware ADS-B
Sun 09:41:37 PM 29.6927 -94.0534 137° Southeast 532 612 35,000  Level FlightAware ADS-B
Sun 09:41:52 PM 29.6651 -94.0225 136° Southeast 524 603 35,000  Level FlightAware ADS-B
Sun 09:42:07 PM 29.6379 -93.9965 140° Southeast 519 597 35,000  Level FlightAware ADS-B
Sun 09:42:23 PM 29.6073 -93.9692 142° Southeast 516 594 35,000  Level FlightAware ADS-B
Sun 09:42:47 PM 29.5619 -93.9301 143° Southeast 515 593 35,000  Level FlightAware ADS-B
Sun 09:42:53 PM 29.5499 -93.9199 144° Southeast 513 590 35,000  Level FlightAware ADS-B
Sun 09:43:24 PM 29.4916 -93.8705 144° Southeast 513 590 35,000  Level FlightAware ADS-B
Sun 09:43:54 PM 29.4339 -93.8216 144° Southeast 513 590 35,000  Level FlightAware ADS-B
Sun 09:44:25 PM 29.3750 -93.7717 144° Southeast 515 593 35,000  Level FlightAware ADS-B
Sun 09:45:03 PM 29.3019 -93.7096 143° Southeast 515 593 35,000  Level FlightAware ADS-B
Sun 09:45:35 PM 29.2404 -93.6573 143° Southeast 517 595 35,000  Level FlightAware ADS-B
Sun 09:46:08 PM 29.1780 -93.6045 144° Southeast 518 596 35,000  Level FlightAware ADS-B
Sun 09:46:38 PM 29.1193 -93.5548 144° Southeast 520 598 35,000  Level FlightAware ADS-B
Sun 09:47:08 PM 29.0607 -93.5052 143° Southeast 520 598 35,000  Level FlightAware ADS-B
Sun 09:47:47 PM 28.9849 -93.4413 144° Southeast 520 598 35,000  Level FlightAware ADS-B
Sun 09:48:18 PM 28.9260 -93.3918 144° Southeast 521 600 35,000  Level FlightAware ADS-B
Sun 09:48:50 PM 28.8639 -93.3395 144° Southeast 521 600 35,000 -111 Level FlightAware ADS-B
Sun 09:49:12 PM 28.8481 -93.3250 144° Southeast 523 602 34,900 -72 Descending Houston Center
Sun 09:50:13 PM 28.7083 -93.2081 144° Southeast 520 598 34,900  Level Houston Center
Sun 09:51:14 PM 28.5931 -93.1108 143° Southeast 517 595 34,900  Level Houston Center
Sun 09:52:15 PM 28.4775 -93.0156 144° Southeast 515 593 34,900  Level Houston Center
Sun 09:53:16 PM 28.3631 -92.9189 143° Southeast 513 590 34,900  Level Houston Center
Sun 09:54:17 PM 28.2478 -92.8236 144° Southeast 514 592 34,900  Level Houston Center
Sun 09:55:18 PM 28.1311 -92.7275 144° Southeast 518 596 34,900  Level Houston Center
Sun 09:56:19 PM 28.0156 -92.6306 143° Southeast 518 596 34,900  Level Houston Center
Sun 09:57:20 PM 27.8969 -92.5339 144° Southeast 524 603 34,900  Level Houston Center
Sun 09:58:21 PM 27.7778 -92.4381 145° Southeast 527 606 34,900  Level Houston Center
Sun 09:59:22 PM 27.6581 -92.3414 144° Southeast 528 608 34,900 49 Level Houston Center
Sun 10:00:23 PM 27.5403 -92.2467 144° Southeast 522 601 35,000  Climbing Houston Center
Sun 10:01:24 PM 27.3992 -92.1314 144° Southeast 522 601 34,900  Descending Houston Center
Sun 10:02:25 PM 27.2811 -92.0342 144° Southeast 526 605 35,000 49 Climbing Houston Center
Sun 10:03:26 PM 27.1617 -91.9381 144° Southeast 526 605 35,000 Level Houston Center
Sun 10:05:00 PM 26.9905 -91.7931 143° Southeast  Level FlightAware Approximate
Sun 10:12:00 PM 26.2084 -91.1752 146° Southeast  Level FlightAware Approximate
Sun 10:13:00 PM 26.0955 -91.0892 146° Southeast  Level FlightAware Approximate
Sun 10:14:00 PM 25.9827 -91.0030 145° Southeast  Level FlightAware Approximate
Sun 10:15:00 PM 25.8711 -90.9150 145° Southeast  Level FlightAware Approximate
Sun 10:16:00 PM 25.7595 -90.8272 145° Southeast  Level FlightAware Approximate
Sun 10:17:00 PM 25.6478 -90.7395 145° Southeast  Level FlightAware Approximate
Sun 10:18:00 PM 25.5361 -90.6520 145° Southeast  Level FlightAware Approximate
Sun 10:19:00 PM 25.4243 -90.5647 145° Southeast  Level FlightAware Approximate
Sun 10:20:00 PM 25.3125 -90.4775 145° Southeast  Level FlightAware Approximate
Sun 10:21:00 PM 25.2006 -90.3904 145° Southeast  Level FlightAware Approximate
Sun 10:22:00 PM 25.0886 -90.3036 145° Southeast  Level FlightAware Approximate
Sun 10:23:00 PM 24.9767 -90.2169 145° Southeast  Level FlightAware Approximate
Sun 10:24:00 PM 24.8646 -90.1303 145° Southeast  Level FlightAware Approximate
Sun 10:25:00 PM 24.7525 -90.0439 145° Southeast  Level FlightAware Approximate
Sun 10:26:00 PM 24.6404 -89.9577 145° Southeast  Level FlightAware Approximate
Sun 10:27:00 PM 24.5282 -89.8716 145° Southeast  Level FlightAware Approximate
Sun 10:28:00 PM 24.4442 -89.7568 119° Southeast  Level FlightAware Approximate
Sun 10:29:00 PM 24.3771 -89.6259 119° Southeast  Level FlightAware Approximate
Sun 10:30:00 PM 24.3099 -89.4952 119° Southeast  Level FlightAware Approximate
Sun 10:31:00 PM 24.2425 -89.3645 119° Southeast  Level FlightAware Approximate
Sun 10:32:00 PM 24.1753 -89.2339 119° Southeast  Level FlightAware Approximate
Sun 10:33:00 PM 24.1096 -89.1024 119° Southeast  Level FlightAware Approximate
Sun 10:34:00 PM 24.0439 -88.9710 119° Southeast  Level FlightAware Approximate
Sun 10:35:00 PM 23.9750 -88.8416 120° Southeast  Level FlightAware Approximate
Sun 10:36:00 PM 23.9062 -88.7123 119° Southeast  Level FlightAware Approximate
Sun 10:37:00 PM 23.8406 -88.5810 119° Southeast  Level FlightAware Approximate
Sun 10:38:00 PM 23.7735 -88.4507 120° Southeast  Level FlightAware Approximate
Sun 10:39:00 PM 23.7041 -88.3219 120° Southeast  Level FlightAware Approximate
Sun 10:40:00 PM 23.6358 -88.1926 120° Southeast  Level FlightAware Approximate
Sun 10:41:00 PM 23.5678 -88.0630 120° Southeast  Level FlightAware Approximate
Sun 10:42:00 PM 23.4996 -87.9336 120° Southeast  Level FlightAware Approximate
Sun 10:43:00 PM 23.4314 -87.8044 120° Southeast  Level FlightAware Approximate
Sun 10:44:00 PM 23.3631 -87.6752 120° Southeast  Level FlightAware Approximate
Sun 10:45:00 PM 23.2946 -87.5462 120° Southeast  Level FlightAware Approximate
Sun 10:46:00 PM 23.2261 -87.4174 120° Southeast  Level FlightAware Approximate
Sun 10:47:00 PM 23.1575 -87.2887 120° Southeast  Level FlightAware Approximate
Sun 10:48:00 PM 23.0887 -87.1600 120° Southeast  Level FlightAware Approximate
Sun 10:49:00 PM 23.0255 -87.0282 117° Southeast  Level FlightAware Approximate
Sun 10:50:00 PM 22.9626 -86.8962 117° Southeast  Level FlightAware Approximate
Sun 10:51:00 PM 22.8997 -86.7643 117° Southeast  Level FlightAware Approximate
Sun 10:52:00 PM 22.8370 -86.6324 117° Southeast  Level FlightAware Approximate
Sun 10:53:00 PM 22.7742 -86.5006 117° Southeast  Level FlightAware Approximate
Sun 10:54:00 PM 22.6724 -86.4143 157° South  Level FlightAware Approximate
Sun 10:55:00 PM 22.5465 -86.3563 157° South  Level FlightAware Approximate
Sun 10:56:00 PM 22.4206 -86.2985 157° South  Level FlightAware Approximate
Sun 10:57:00 PM 22.2947 -86.2408 157° South  Level FlightAware Approximate
Sun 10:58:00 PM 22.1687 -86.1831 157° South  Level FlightAware Approximate
Sun 10:59:00 PM 22.0427 -86.1256 157° South  Level FlightAware Approximate
Sun 11:00:00 PM 21.9166 -86.0684 157° South  Level FlightAware Approximate
Sun 11:01:00 PM 21.7903 -86.0117 157° South  Level FlightAware Approximate
Sun 11:02:00 PM 21.6640 -85.9551 157° South  Level FlightAware Approximate
Sun 11:03:00 PM 21.5377 -85.8987 157° South  Level FlightAware Approximate
Sun 11:04:00 PM 21.4114 -85.8423 157° South  Level FlightAware Approximate
Sun 11:05:00 PM 21.2845 -85.7859 157° South  Level FlightAware Approximate
Sun 11:06:00 PM 21.1577 -85.7295 157° South  Level FlightAware Approximate
Sun 11:07:00 PM 21.0309 -85.6733 158° South  Level FlightAware Approximate
Sun 11:08:00 PM 20.9040 -85.6171 158° South  Level FlightAware Approximate
Sun 11:09:00 PM 20.7771 -85.5610 158° South  Level FlightAware Approximate
Sun 11:10:00 PM 20.6502 -85.5051 158° South  Level FlightAware Approximate
Sun 11:11:00 PM 20.5233 -85.4492 158° South  Level FlightAware Approximate
Sun 11:12:00 PM 20.3963 -85.3934 158° South  Level FlightAware Approximate
Sun 11:13:00 PM 20.2694 -85.3377 158° South  Level FlightAware Approximate
Sun 11:14:00 PM 20.1615 -85.2612 104° East  Level FlightAware Approximate
Sun 11:15:00 PM 20.1283 -85.1193 104° East  Level FlightAware Approximate
Sun 11:16:00 PM 20.0950 -84.9775 104° East  Level FlightAware Approximate
Sun 11:17:00 PM 20.0615 -84.8357 104° East  Level FlightAware Approximate
Sun 11:18:00 PM 20.0279 -84.6940 104° East  Level FlightAware Approximate
Sun 11:19:00 PM 19.9939 -84.5525 104° East  Level FlightAware Approximate
Sun 11:20:00 PM 19.9598 -84.4110 104° East  Level FlightAware Approximate
Sun 11:21:00 PM 19.9255 -84.2696 104° East  Level FlightAware Approximate
Sun 11:22:00 PM 19.8912 -84.1282 104° East  Level FlightAware Approximate
Sun 11:23:00 PM 19.8567 -83.9869 105° East  Level FlightAware Approximate
Sun 11:24:00 PM 19.8221 -83.8457 105° East  Level FlightAware Approximate
Sun 11:25:00 PM 19.7874 -83.7045 105° East  Level FlightAware Approximate
Sun 11:26:00 PM 19.7526 -83.5634 105° East  Level FlightAware Approximate
Sun 11:27:00 PM 19.7177 -83.4223 105° East  Level FlightAware Approximate
Sun 11:28:00 PM 19.6827 -83.2813 105° East  Level FlightAware Approximate
Sun 11:29:00 PM 19.6476 -83.1404 105° East  Level FlightAware Approximate
Sun 11:30:00 PM 19.6117 -82.9997 105° East  Level FlightAware Approximate
Sun 11:31:00 PM 19.5758 -82.8590 105° East  Level FlightAware Approximate
Sun 11:32:00 PM 19.5398 -82.7185 105° East  Level FlightAware Approximate
Sun 11:33:00 PM 19.5036 -82.5779 105° East  Level FlightAware Approximate
Sun 11:34:00 PM 19.4674 -82.4375 105° East  Level FlightAware Approximate
Sun 11:35:00 PM 19.4310 -82.2971 105° East  Level FlightAware Approximate
Sun 11:36:00 PM 19.3945 -82.1568 105° East  Level FlightAware Approximate
Sun 11:37:00 PM 19.3580 -82.0165 105° East  Level FlightAware Approximate
Sun 11:38:00 PM 19.3217 -81.8762 105° East  Level FlightAware Approximate
Sun 11:39:00 PM 19.2853 -81.7359 105° East  Level FlightAware Approximate
Sun 11:40:00 PM 19.2488 -81.5957 105° East  Level FlightAware Approximate
Sun 11:41:00 PM 19.2122 -81.4556 105° East  Level FlightAware Approximate
Sun 11:42:00 PM 19.1754 -81.3155 105° East  Level FlightAware Approximate
Sun 11:43:00 PM 19.1386 -81.1755 106° East  Level FlightAware Approximate
Sun 11:44:00 PM 19.1017 -81.0356 106° East  Level FlightAware Approximate
Sun 11:45:00 PM 19.0646 -80.8957 106° East  Level FlightAware Approximate
Sun 11:46:00 PM 19.0275 -80.7559 106° East  Level FlightAware Approximate
Sun 11:47:00 PM 18.9902 -80.6161 106° East  Level FlightAware Approximate
Sun 11:48:00 PM 18.9529 -80.4764 106° East  Level FlightAware Approximate
Sun 11:49:00 PM 18.9154 -80.3368 106° East  Level FlightAware Approximate
Sun 11:50:00 PM 18.8778 -80.1973 106° East  Level FlightAware Approximate
Sun 11:51:00 PM 18.8402 -80.0577 106° East  Level FlightAware Approximate
Sun 11:52:00 PM 18.8024 -79.9183 106° East  Level FlightAware Approximate
Sun 11:53:00 PM 18.7645 -79.7789 106° East  Level FlightAware Approximate
Sun 11:54:00 PM 18.7265 -79.6396 106° East  Level FlightAware Approximate
Sun 11:55:00 PM 18.6885 -79.5004 106° East  Level FlightAware Approximate
Sun 11:56:00 PM 18.6503 -79.3612 106° East  Level FlightAware Approximate
Sun 11:57:00 PM 18.6120 -79.2221 106° East  Level FlightAware Approximate
Sun 11:58:00 PM 18.5736 -79.0830 106° East  Level FlightAware Approximate
Sun 11:59:00 PM 18.5351 -78.9440 106° East  Level FlightAware Approximate
Mon 12:00:00 AM 18.4965 -78.8051 106° East  Level FlightAware Approximate
Mon 12:01:00 AM 18.4578 -78.6662 106° East  Level FlightAware Approximate
Mon 12:02:00 AM 18.4190 -78.5274 106° East  Level FlightAware Approximate
Mon 12:03:00 AM 18.3801 -78.3886 106° East  Level FlightAware Approximate
Mon 12:04:00 AM 18.3411 -78.2499 106° East  Level FlightAware Approximate
Mon 12:05:00 AM 18.3020 -78.1113 107° East  Level FlightAware Approximate
Mon 12:06:00 AM 18.2628 -77.9727 107° East  Level FlightAware Approximate
Mon 12:07:00 AM 18.2235 -77.8342 107° East  Level FlightAware Approximate
Mon 12:08:00 AM 18.1841 -77.6958 107° East  Level FlightAware Approximate
Mon 12:09:00 AM 18.1446 -77.5574 107° East  Level FlightAware Approximate
Mon 12:10:00 AM 18.1050 -77.4191 107° East  Level FlightAware Approximate
Mon 12:11:00 AM 18.0653 -77.2809 107° East  Level FlightAware Approximate
Mon 12:12:00 AM 18.0255 -77.1427 107° East  Level FlightAware Approximate
Mon 12:13:00 AM 17.9856 -77.0045 107° East  Level FlightAware Approximate
Mon 12:14:00 AM 17.9457 -76.8665 107° East  Level FlightAware Approximate
Mon 12:15:00 AM 17.8930 -76.7354 128° Southeast  Level FlightAware Approximate
Mon 12:16:00 AM 17.8076 -76.6225 128° Southeast  Level FlightAware Approximate
Mon 12:17:00 AM 17.7221 -76.5097 128° Southeast  Level FlightAware Approximate
Mon 12:18:00 AM 17.6366 -76.3970 129° Southeast  Level FlightAware Approximate
Mon 12:19:00 AM 17.5510 -76.2844 129° Southeast  Level FlightAware Approximate
Mon 12:20:00 AM 17.4653 -76.1719 129° Southeast  Level FlightAware Approximate
Mon 12:21:00 AM 17.3796 -76.0595 129° Southeast  Level FlightAware Approximate
Mon 12:22:00 AM 17.2938 -75.9473 129° Southeast  Level FlightAware Approximate
Mon 12:23:00 AM 17.2079 -75.8351 129° Southeast  Level FlightAware Approximate
Mon 12:24:00 AM 17.1220 -75.7231 129° Southeast  Level FlightAware Approximate
Mon 12:25:00 AM 17.0360 -75.6111 129° Southeast  Level FlightAware Approximate
Mon 12:26:00 AM 16.9499 -75.4992 129° Southeast  Level FlightAware Approximate
Mon 12:27:00 AM 16.8638 -75.3875 129° Southeast  Level FlightAware Approximate
Mon 12:28:00 AM 16.7777 -75.2758 129° Southeast  Level FlightAware Approximate
Mon 12:29:00 AM 16.6914 -75.1643 129° Southeast  Level FlightAware Approximate
Mon 12:30:00 AM 16.6052 -75.0528 129° Southeast  Level FlightAware Approximate
Mon 12:31:00 AM 16.5188 -74.9415 129° Southeast  Level FlightAware Approximate
Mon 12:32:00 AM 16.4324 -74.8302 129° Southeast  Level FlightAware Approximate
Mon 12:33:00 AM 16.3459 -74.7191 129° Southeast  Level FlightAware Approximate
Mon 12:34:00 AM 16.2594 -74.6080 129° Southeast  Level FlightAware Approximate
Mon 12:35:00 AM 16.1728 -74.4971 129° Southeast  Level FlightAware Approximate
Mon 12:36:00 AM 16.0862 -74.3862 129° Southeast  Level FlightAware Approximate
Mon 12:37:00 AM 15.9995 -74.2755 129° Southeast  Level FlightAware Approximate
Mon 12:38:00 AM 15.9128 -74.1648 129° Southeast  Level FlightAware Approximate
Mon 12:39:00 AM 15.8259 -74.0542 129° Southeast  Level FlightAware Approximate
Mon 12:40:00 AM 15.7391 -73.9438 129° Southeast  Level FlightAware Approximate
Mon 12:41:00 AM 15.6521 -73.8334 129° Southeast  Level FlightAware Approximate
Mon 12:42:00 AM 15.5651 -73.7232 129° Southeast  Level FlightAware Approximate
Mon 12:43:00 AM 15.4781 -73.6130 129° Southeast  Level FlightAware Approximate
Mon 12:44:00 AM 15.3910 -73.5029 129° Southeast  Level FlightAware Approximate
Mon 12:45:00 AM 15.3038 -73.3929 129° Southeast  Level FlightAware Approximate
Mon 12:46:00 AM 15.2166 -73.2831 129° Southeast  Level FlightAware Approximate
Mon 12:47:00 AM 15.1293 -73.1732 129° Southeast  Level FlightAware Approximate
Mon 12:48:00 AM 15.0420 -73.0635 129° Southeast  Level FlightAware Approximate
Mon 12:49:00 AM 14.9546 -72.9539 130° Southeast  Level FlightAware Approximate
Mon 12:50:00 AM 14.8671 -72.8444 130° Southeast  Level FlightAware Approximate
Mon 12:51:00 AM 14.7796 -72.7349 130° Southeast  Level FlightAware Approximate
Mon 12:52:00 AM 14.6921 -72.6256 130° Southeast  Level FlightAware Approximate
Mon 12:53:00 AM 14.6045 -72.5163 130° Southeast  Level FlightAware Approximate
Mon 12:54:00 AM 14.5169 -72.4072 130° Southeast  Level FlightAware Approximate
Mon 12:55:00 AM 14.4292 -72.2981 130° Southeast  Level FlightAware Approximate
Mon 12:56:00 AM 14.3414 -72.1891 130° Southeast  Level FlightAware Approximate
Mon 12:57:00 AM 14.2537 -72.0801 130° Southeast  Level FlightAware Approximate
Mon 12:58:00 AM 14.1658 -71.9713 130° Southeast  Level FlightAware Approximate
Mon 12:59:00 AM 14.0779 -71.8626 130° Southeast  Level FlightAware Approximate
Mon 01:00:00 AM 13.9900 -71.7539 130° Southeast  Level FlightAware Approximate
Mon 01:01:00 AM 13.9020 -71.6453 130° Southeast  Level FlightAware Approximate
Mon 01:02:00 AM 13.8140 -71.5368 130° Southeast  Level FlightAware Approximate
Mon 01:03:00 AM 13.7259 -71.4284 130° Southeast  Level FlightAware Approximate
Mon 01:04:00 AM 13.6378 -71.3201 130° Southeast  Level FlightAware Approximate
Mon 01:05:00 AM 13.5496 -71.2118 130° Southeast  Level FlightAware Approximate
Mon 01:06:00 AM 13.4614 -71.1036 130° Southeast  Level FlightAware Approximate
Mon 01:07:00 AM 13.3731 -70.9955 130° Southeast  Level FlightAware Approximate
Mon 01:08:00 AM 13.2848 -70.8875 130° Southeast  Level FlightAware Approximate
Mon 01:09:00 AM 13.1964 -70.7795 130° Southeast  Level FlightAware Approximate
Mon 01:10:00 AM 13.1080 -70.6717 130° Southeast  Level FlightAware Approximate
Mon 01:11:00 AM 13.0196 -70.5639 130° Southeast  Level FlightAware Approximate
Mon 01:12:00 AM 12.9311 -70.4562 130° Southeast  Level FlightAware Approximate
Mon 01:13:00 AM 12.8426 -70.3486 130° Southeast  Level FlightAware Approximate
Mon 01:14:00 AM 12.7540 -70.2410 130° Southeast  Level FlightAware Approximate
Mon 01:15:00 AM 12.6654 -70.1335 130° Southeast  Level FlightAware Approximate
Mon 01:16:00 AM 12.5767 -70.0261 130° Southeast  Level FlightAware Approximate
Mon 01:17:00 AM 12.4939 -69.9154 109° East  Level FlightAware Approximate
Mon 01:18:00 AM 12.4491 -69.7825 109° East  Level FlightAware Approximate
Mon 01:19:00 AM 12.4041 -69.6494 109° East  Level FlightAware Approximate
Mon 01:20:00 AM 12.3590 -69.5164 109° East  Level FlightAware Approximate
Mon 01:21:00 AM 12.3139 -69.3834 109° East  Level FlightAware Approximate
Mon 01:22:00 AM 12.2687 -69.2505 109° East  Level FlightAware Approximate
Mon 01:23:00 AM 12.2234 -69.1176 109° East  Level FlightAware Approximate
Mon 01:24:00 AM 12.1735 -68.9873 128° Southeast  Level FlightAware Approximate
Mon 01:25:00 AM 12.0880 -68.8771 128° Southeast  Level FlightAware Approximate
Mon 01:26:00 AM 12.0024 -68.7671 128° Southeast  Level FlightAware Approximate
Mon 01:27:00 AM 11.9168 -68.6570 128° Southeast  Level FlightAware Approximate
Mon 01:28:00 AM 11.8312 -68.5471 129° Southeast  Level FlightAware Approximate
Mon 01:29:00 AM 11.7455 -68.4372 129° Southeast  Level FlightAware Approximate
Mon 01:30:00 AM 11.6597 -68.3274 129° Southeast  Level FlightAware Approximate
Mon 01:31:00 AM 11.5740 -68.2176 129° Southeast  Level FlightAware Approximate
Mon 01:32:00 AM 11.4881 -68.1079 129° Southeast  Level FlightAware Approximate
Mon 01:33:00 AM 11.4023 -67.9983 129° Southeast  Level FlightAware Approximate
Mon 01:34:00 AM 11.3162 -67.8889 129° Southeast  Level FlightAware Approximate
Mon 01:35:00 AM 11.2300 -67.7796 129° Southeast  Level FlightAware Approximate
Mon 01:36:00 AM 11.1439 -67.6704 129° Southeast  Level FlightAware Approximate
Mon 01:37:00 AM 11.0577 -67.5612 129° Southeast  Level FlightAware Approximate
Mon 01:38:00 AM 10.9714 -67.4520 129° Southeast  Level FlightAware Approximate
Mon 01:39:00 AM 10.8851 -67.3430 129° Southeast  Level FlightAware Approximate
Mon 01:40:00 AM 10.7988 -67.2339 129° Southeast  Level FlightAware Approximate
Mon 01:41:00 AM 10.7124 -67.1250 129° Southeast  Level FlightAware Approximate
Mon 01:42:00 AM 10.6260 -67.0161 129° Southeast  Level FlightAware Approximate
Mon 01:43:00 AM 10.5184 -66.9317 148° Southeast  Level FlightAware Approximate
Mon 01:44:00 AM 10.4016 -66.8579 148° Southeast  Level FlightAware Approximate
Mon 01:45:00 AM 10.2847 -66.7842 148° Southeast  Level FlightAware Approximate
Mon 01:46:00 AM 10.2205 -66.6609 118° Southeast  Level FlightAware Approximate
Mon 01:47:00 AM 10.1568 -66.5370 118° Southeast  Level FlightAware Approximate
Mon 01:48:00 AM 10.0932 -66.4132 118° Southeast  Level FlightAware Approximate
Mon 01:49:00 AM 10.0294 -66.2894 118° Southeast  Level FlightAware Approximate
Mon 01:50:00 AM 9.9656 -66.1657 118° Southeast  Level FlightAware Approximate
Mon 01:51:00 AM 9.9018 -66.0420 118° Southeast  Level FlightAware Approximate
Mon 01:52:00 AM 9.8379 -65.9184 118° Southeast  Level FlightAware Approximate
Mon 01:53:00 AM 9.7740 -65.7948 118° Southeast  Level FlightAware Approximate
Mon 01:54:00 AM 9.7100 -65.6713 118° Southeast  Level FlightAware Approximate
Mon 01:55:00 AM 9.6460 -65.5478 118° Southeast  Level FlightAware Approximate
Mon 01:56:00 AM 9.5820 -65.4244 118° Southeast  Level FlightAware Approximate
Mon 01:57:00 AM 9.5178 -65.3010 118° Southeast  Level FlightAware Approximate
Mon 01:58:00 AM 9.4199 -65.2074 144° Southeast  Level FlightAware Approximate
Mon 01:59:00 AM 9.3088 -65.1252 144° Southeast  Level FlightAware Approximate
Mon 02:00:00 AM 9.1976 -65.0431 144° Southeast  Level FlightAware Approximate
Mon 02:01:00 AM 9.0865 -64.9610 144° Southeast  Level FlightAware Approximate
Mon 02:02:00 AM 8.9753 -64.8790 144° Southeast  Level FlightAware Approximate
Mon 02:03:00 AM 8.8642 -64.7971 144° Southeast  Level FlightAware Approximate
Mon 02:04:00 AM 8.7530 -64.7152 144° Southeast  Level FlightAware Approximate
Mon 02:05:00 AM 8.6418 -64.6333 144° Southeast  Level FlightAware Approximate
Mon 02:06:00 AM 8.5305 -64.5515 144° Southeast  Level FlightAware Approximate
Mon 02:07:00 AM 8.4193 -64.4698 144° Southeast  Level FlightAware Approximate
Mon 02:08:00 AM 8.3080 -64.3881 144° Southeast  Level FlightAware Approximate
Mon 02:09:00 AM 8.1970 -64.3065 144° Southeast  Level FlightAware Approximate
Mon 02:10:00 AM 8.0859 -64.2251 144° Southeast  Level FlightAware Approximate
Mon 02:11:00 AM 7.9748 -64.1436 144° Southeast  Level FlightAware Approximate
Mon 02:12:00 AM 7.8636 -64.0623 144° Southeast  Level FlightAware Approximate
Mon 02:13:00 AM 7.7525 -63.9809 144° Southeast  Level FlightAware Approximate
Mon 02:14:00 AM 7.6413 -63.8996 144° Southeast  Level FlightAware Approximate
Mon 02:15:00 AM 7.5302 -63.8184 144° Southeast  Level FlightAware Approximate
Mon 02:16:00 AM 7.4190 -63.7371 144° Southeast  Level FlightAware Approximate
Mon 02:17:00 AM 7.3078 -63.6560 144° Southeast  Level FlightAware Approximate
Mon 02:18:00 AM 7.1965 -63.5748 144° Southeast  Level FlightAware Approximate
Mon 02:19:00 AM 7.0853 -63.4938 144° Southeast  Level FlightAware Approximate
Mon 02:20:00 AM 6.9741 -63.4127 144° Southeast  Level FlightAware Approximate
Mon 02:21:00 AM 6.8628 -63.3317 144° Southeast  Level FlightAware Approximate
Mon 02:22:00 AM 6.7516 -63.2507 144° Southeast  Level FlightAware Approximate
Mon 02:23:00 AM 6.6403 -63.1698 144° Southeast  Level FlightAware Approximate
Mon 02:24:00 AM 6.5290 -63.0889 144° Southeast  Level FlightAware Approximate
Mon 02:25:00 AM 6.4177 -63.0080 144° Southeast  Level FlightAware Approximate
Mon 02:26:00 AM 6.3063 -62.9272 144° Southeast  Level FlightAware Approximate
Mon 02:27:00 AM 6.1948 -62.8466 147° Southeast  Level FlightAware Approximate
Mon 02:28:00 AM 6.0795 -62.7716 147° Southeast  Level FlightAware Approximate
Mon 02:29:00 AM 5.9643 -62.6967 147° Southeast  Level FlightAware Approximate
Mon 02:30:00 AM 5.8490 -62.6217 147° Southeast  Level FlightAware Approximate
Mon 02:31:00 AM 5.7337 -62.5468 147° Southeast  Level FlightAware Approximate
Mon 02:32:00 AM 5.6184 -62.4720 147° Southeast  Level FlightAware Approximate
Mon 02:33:00 AM 5.5030 -62.3971 147° Southeast  Level FlightAware Approximate
Mon 02:34:00 AM 5.3877 -62.3223 147° Southeast  Level FlightAware Approximate
Mon 02:35:00 AM 5.2724 -62.2475 147° Southeast  Level FlightAware Approximate
Mon 02:36:00 AM 5.1571 -62.1727 147° Southeast  Level FlightAware Approximate
Mon 02:37:00 AM 5.0417 -62.0980 147° Southeast  Level FlightAware Approximate
Mon 02:38:00 AM 4.9263 -62.0233 147° Southeast  Level FlightAware Approximate
Mon 02:39:00 AM 4.8110 -61.9486 147° Southeast  Level FlightAware Approximate
Mon 02:40:00 AM 4.6956 -61.8740 147° Southeast  Level FlightAware Approximate
Mon 02:41:00 AM 4.5802 -61.7993 147° Southeast  Level FlightAware Approximate
Mon 02:42:00 AM 4.4648 -61.7247 147° Southeast  Level FlightAware Approximate
Mon 02:43:00 AM 4.3494 -61.6502 147° Southeast  Level FlightAware Approximate
Mon 02:44:00 AM 4.2340 -61.5756 147° Southeast  Level FlightAware Approximate
Mon 02:45:00 AM 4.1186 -61.5010 147° Southeast  Level FlightAware Approximate
Mon 02:46:00 AM 4.0032 -61.4265 147° Southeast  Level FlightAware Approximate
Mon 02:47:00 AM 3.8877 -61.3521 147° Southeast  Level FlightAware Approximate
Mon 02:48:00 AM 3.7723 -61.2776 147° Southeast  Level FlightAware Approximate
Mon 02:49:00 AM 3.6569 -61.2031 147° Southeast  Level FlightAware Approximate
Mon 02:50:00 AM 3.5414 -61.1287 147° Southeast  Level FlightAware Approximate
Mon 02:51:00 AM 3.4260 -61.0543 147° Southeast  Level FlightAware Approximate
Mon 02:52:00 AM 3.3105 -60.9799 147° Southeast  Level FlightAware Approximate
Mon 02:53:00 AM 3.1951 -60.9055 147° Southeast  Level FlightAware Approximate
Mon 02:54:00 AM 3.0796 -60.8311 147° Southeast  Level FlightAware Approximate
Mon 02:55:00 AM 2.9641 -60.7568 147° Southeast  Level FlightAware Approximate
Mon 02:56:00 AM 2.8485 -60.6826 153° Southeast  Level FlightAware Approximate
Mon 02:57:00 AM 2.7263 -60.6200 153° Southeast  Level FlightAware Approximate
Mon 02:58:00 AM 2.6041 -60.5574 153° Southeast  Level FlightAware Approximate
Mon 02:59:00 AM 2.4818 -60.4949 153° Southeast  Level FlightAware Approximate
Mon 03:00:00 AM 2.3596 -60.4324 153° Southeast  Level FlightAware Approximate
Mon 03:01:00 AM 2.2373 -60.3699 153° Southeast  Level FlightAware Approximate
Mon 03:02:00 AM 2.1151 -60.3073 153° Southeast  Level FlightAware Approximate
Mon 03:03:00 AM 1.9928 -60.2449 153° Southeast  Level FlightAware Approximate
Mon 03:04:00 AM 1.8706 -60.1824 153° Southeast  Level FlightAware Approximate
Mon 03:05:00 AM 1.7483 -60.1199 153° Southeast  Level FlightAware Approximate
Mon 03:06:00 AM 1.6260 -60.0574 153° Southeast  Level FlightAware Approximate
Mon 03:07:00 AM 1.5038 -59.9950 153° Southeast  Level FlightAware Approximate
Mon 03:08:00 AM 1.3815 -59.9325 153° Southeast  Level FlightAware Approximate
Mon 03:09:00 AM 1.2592 -59.8701 153° Southeast  Level FlightAware Approximate
Mon 03:10:00 AM 1.1370 -59.8077 153° Southeast  Level FlightAware Approximate
Mon 03:11:00 AM 1.0147 -59.7452 153° Southeast  Level FlightAware Approximate
Mon 03:12:00 AM 0.8924 -59.6828 153° Southeast  Level FlightAware Approximate
Mon 03:13:00 AM 0.7701 -59.6204 153° Southeast  Level FlightAware Approximate
Mon 03:14:00 AM 0.6478 -59.5580 153° Southeast  Level FlightAware Approximate
Mon 03:15:00 AM 0.5256 -59.4956 153° Southeast  Level FlightAware Approximate
Mon 03:16:00 AM 0.4033 -59.4332 153° Southeast  Level FlightAware Approximate
Mon 03:17:00 AM 0.2810 -59.3708 153° Southeast  Level FlightAware Approximate
Mon 03:18:00 AM 0.1587 -59.3083 153° Southeast  Level FlightAware Approximate
Mon 03:19:00 AM 0.0364 -59.2459 153° Southeast  Level FlightAware Approximate
Mon 03:20:00 AM -0.0858 -59.1835 153° Southeast  Level FlightAware Approximate
Mon 03:21:00 AM -0.2081 -59.1211 153° Southeast  Level FlightAware Approximate
Mon 03:22:00 AM -0.3304 -59.0587 153° Southeast  Level FlightAware Approximate
Mon 03:23:00 AM -0.4527 -58.9963 153° Southeast  Level FlightAware Approximate
Mon 03:24:00 AM -0.5749 -58.9339 153° Southeast  Level FlightAware Approximate
Mon 03:25:00 AM -0.6972 -58.8715 153° Southeast  Level FlightAware Approximate
Mon 03:26:00 AM -0.8195 -58.8091 153° Southeast  Level FlightAware Approximate
Mon 03:27:00 AM -0.9418 -58.7466 153° Southeast  Level FlightAware Approximate
Mon 03:28:00 AM -1.0641 -58.6842 153° Southeast  Level FlightAware Approximate
Mon 03:29:00 AM -1.1863 -58.6218 153° Southeast  Level FlightAware Approximate
Mon 03:30:00 AM -1.3086 -58.5593 153° Southeast  Level FlightAware Approximate
Mon 03:31:00 AM -1.4309 -58.4969 153° Southeast  Level FlightAware Approximate
Mon 03:32:00 AM -1.5531 -58.4344 153° Southeast  Level FlightAware Approximate
Mon 03:33:00 AM -1.6754 -58.3720 153° Southeast  Level FlightAware Approximate
Mon 03:34:00 AM -1.7977 -58.3095 153° Southeast  Level FlightAware Approximate
Mon 03:35:00 AM -1.9199 -58.2471 153° Southeast  Level FlightAware Approximate
Mon 03:36:00 AM -2.0422 -58.1846 153° Southeast  Level FlightAware Approximate
Mon 03:37:00 AM -2.1645 -58.1221 153° Southeast  Level FlightAware Approximate
Mon 03:38:00 AM -2.2867 -58.0596 153° Southeast  Level FlightAware Approximate
Mon 03:39:00 AM -2.4090 -57.9971 153° Southeast  Level FlightAware Approximate
Mon 03:40:00 AM -2.5312 -57.9346 153° Southeast  Level FlightAware Approximate
Mon 03:41:00 AM -2.6535 -57.8720 153° Southeast  Level FlightAware Approximate
Mon 03:42:00 AM -2.7757 -57.8095 153° Southeast  Level FlightAware Approximate
Mon 03:43:00 AM -2.8979 -57.7469 153° Southeast  Level FlightAware Approximate
Mon 03:44:00 AM -3.0202 -57.6843 153° Southeast  Level FlightAware Approximate
Mon 03:45:00 AM -3.1424 -57.6218 153° Southeast  Level FlightAware Approximate
Mon 03:46:00 AM -3.2647 -57.5592 153° Southeast  Level FlightAware Approximate
Mon 03:47:00 AM -3.3869 -57.4965 153° Southeast  Level FlightAware Approximate
Mon 03:48:00 AM -3.5091 -57.4339 153° Southeast  Level FlightAware Approximate
Mon 03:49:00 AM -3.6313 -57.3713 153° Southeast  Level FlightAware Approximate
Mon 03:50:00 AM -3.7535 -57.3086 153° Southeast  Level FlightAware Approximate
Mon 03:51:00 AM -3.8757 -57.2459 153° Southeast  Level FlightAware Approximate
Mon 03:52:00 AM -3.9979 -57.1832 153° Southeast  Level FlightAware Approximate
Mon 03:53:00 AM -4.1201 -57.1205 153° Southeast  Level FlightAware Approximate
Mon 03:54:00 AM -4.2423 -57.0578 153° Southeast  Level FlightAware Approximate
Mon 03:55:00 AM -4.3645 -56.9950 153° Southeast  Level FlightAware Approximate
Mon 03:56:00 AM -4.4867 -56.9322 153° Southeast  Level FlightAware Approximate
Mon 03:57:00 AM -4.6089 -56.8694 153° Southeast  Level FlightAware Approximate
Mon 03:58:00 AM -4.7311 -56.8066 153° Southeast  Level FlightAware Approximate
Mon 03:59:00 AM -4.8532 -56.7438 153° Southeast  Level FlightAware Approximate
Mon 04:00:00 AM -4.9754 -56.6809 153° Southeast  Level FlightAware Approximate
Mon 04:01:00 AM -5.0975 -56.6180 153° Southeast  Level FlightAware Approximate
Mon 04:02:00 AM -5.2197 -56.5551 153° Southeast  Level FlightAware Approximate
Mon 04:03:00 AM -5.3418 -56.4921 153° Southeast  Level FlightAware Approximate
Mon 04:04:00 AM -5.4640 -56.4292 153° Southeast  Level FlightAware Approximate
Mon 04:05:00 AM -5.5861 -56.3662 153° Southeast  Level FlightAware Approximate
Mon 04:06:00 AM -5.7082 -56.3032 153° Southeast  Level FlightAware Approximate
Mon 04:07:00 AM -5.8303 -56.2401 153° Southeast  Level FlightAware Approximate
Mon 04:08:00 AM -5.9524 -56.1771 153° Southeast  Level FlightAware Approximate
Mon 04:09:00 AM -6.0746 -56.1140 153° Southeast  Level FlightAware Approximate
Mon 04:10:00 AM -6.1967 -56.0508 153° Southeast  Level FlightAware Approximate
Mon 04:11:00 AM -6.3187 -55.9877 153° Southeast  Level FlightAware Approximate
Mon 04:12:00 AM -6.4408 -55.9245 153° Southeast  Level FlightAware Approximate
Mon 04:13:00 AM -6.5629 -55.8613 153° Southeast  Level FlightAware Approximate
Mon 04:14:00 AM -6.6849 -55.7980 153° Southeast  Level FlightAware Approximate
Mon 04:15:00 AM -6.8070 -55.7347 153° Southeast  Level FlightAware Approximate
Mon 04:16:00 AM -6.9291 -55.6714 153° Southeast  Level FlightAware Approximate
Mon 04:17:00 AM -7.0511 -55.6081 153° Southeast  Level FlightAware Approximate
Mon 04:18:00 AM -7.1731 -55.5447 153° Southeast  Level FlightAware Approximate
Mon 04:19:00 AM -7.2951 -55.4813 153° Southeast  Level FlightAware Approximate
Mon 04:20:00 AM -7.4172 -55.4178 153° Southeast  Level FlightAware Approximate
Mon 04:21:00 AM -7.5392 -55.3544 153° Southeast  Level FlightAware Approximate
Mon 04:22:00 AM -7.6612 -55.2908 153° Southeast  Level FlightAware Approximate
Mon 04:23:00 AM -7.7832 -55.2273 153° Southeast  Level FlightAware Approximate
Mon 04:24:00 AM -7.9051 -55.1637 153° Southeast  Level FlightAware Approximate
Mon 04:25:00 AM -8.0271 -55.1001 153° Southeast  Level FlightAware Approximate
Mon 04:26:00 AM -8.1491 -55.0364 153° Southeast  Level FlightAware Approximate
Mon 04:27:00 AM -8.2710 -54.9727 153° Southeast  Level FlightAware Approximate
Mon 04:28:00 AM -8.3930 -54.9090 153° Southeast  Level FlightAware Approximate
Mon 04:29:00 AM -8.5149 -54.8452 153° Southeast  Level FlightAware Approximate
Mon 04:30:00 AM -8.6368 -54.7813 153° Southeast  Level FlightAware Approximate
Mon 04:31:00 AM -8.7587 -54.7175 153° Southeast  Level FlightAware Approximate
Mon 04:32:00 AM -8.8806 -54.6536 153° Southeast  Level FlightAware Approximate
Mon 04:33:00 AM -9.0025 -54.5896 153° Southeast  Level FlightAware Approximate
Mon 04:34:00 AM -9.1244 -54.5256 153° Southeast  Level FlightAware Approximate
Mon 04:35:00 AM -9.2462 -54.4616 153° Southeast  Level FlightAware Approximate
Mon 04:36:00 AM -9.3681 -54.3975 153° Southeast  Level FlightAware Approximate
Mon 04:37:00 AM -9.4899 -54.3334 153° Southeast  Level FlightAware Approximate
Mon 04:38:00 AM -9.6117 -54.2692 153° Southeast  Level FlightAware Approximate
Mon 04:39:00 AM -9.7336 -54.2050 153° Southeast  Level FlightAware Approximate
Mon 04:40:00 AM -9.8554 -54.1407 153° Southeast  Level FlightAware Approximate
Mon 04:41:00 AM -9.9772 -54.0764 153° Southeast  Level FlightAware Approximate
Mon 04:42:00 AM -10.0989 -54.0121 153° Southeast  Level FlightAware Approximate
Mon 04:43:00 AM -10.2207 -53.9476 153° Southeast  Level FlightAware Approximate
Mon 04:44:00 AM -10.3425 -53.8832 152° Southeast  Level FlightAware Approximate
Mon 04:45:00 AM -10.4642 -53.8187 152° Southeast  Level FlightAware Approximate
Mon 04:46:00 AM -10.5859 -53.7541 152° Southeast  Level FlightAware Approximate
Mon 04:47:00 AM -10.7077 -53.6895 152° Southeast  Level FlightAware Approximate
Mon 04:48:00 AM -10.8294 -53.6248 152° Southeast  Level FlightAware Approximate
Mon 04:49:00 AM -10.9510 -53.5601 152° Southeast  Level FlightAware Approximate
Mon 04:50:00 AM -11.0727 -53.4953 152° Southeast  Level FlightAware Approximate
Mon 04:51:00 AM -11.1944 -53.4305 152° Southeast  Level FlightAware Approximate
Mon 04:52:00 AM -11.3160 -53.3657 152° Southeast  Level FlightAware Approximate
Mon 04:53:00 AM -11.4377 -53.3007 152° Southeast  Level FlightAware Approximate
Mon 04:54:00 AM -11.5593 -53.2357 152° Southeast  Level FlightAware Approximate
Mon 04:55:00 AM -11.6809 -53.1707 152° Southeast  Level FlightAware Approximate
Mon 04:56:00 AM -11.8025 -53.1056 152° Southeast  Level FlightAware Approximate
Mon 04:57:00 AM -11.9241 -53.0404 152° Southeast  Level FlightAware Approximate
Mon 04:58:00 AM -12.0456 -52.9752 152° Southeast  Level FlightAware Approximate
Mon 04:59:00 AM -12.1671 -52.9099 152° Southeast  Level FlightAware Approximate
Mon 05:00:00 AM -12.2887 -52.8446 152° Southeast  Level FlightAware Approximate
Mon 05:01:00 AM -12.4102 -52.7792 152° Southeast  Level FlightAware Approximate
Mon 05:02:00 AM -12.5317 -52.7137 152° Southeast  Level FlightAware Approximate
Mon 05:03:00 AM -12.6532 -52.6482 152° Southeast  Level FlightAware Approximate
Mon 05:04:00 AM -12.7746 -52.5826 152° Southeast  Level FlightAware Approximate
Mon 05:05:00 AM -12.8961 -52.5170 152° Southeast  Level FlightAware Approximate
Mon 05:06:00 AM -13.0175 -52.4513 152° Southeast  Level FlightAware Approximate
Mon 05:07:00 AM -13.1389 -52.3855 152° Southeast  Level FlightAware Approximate
Mon 05:08:00 AM -13.2603 -52.3197 152° Southeast  Level FlightAware Approximate
Mon 05:09:00 AM -13.3817 -52.2538 152° Southeast  Level FlightAware Approximate
Mon 05:10:00 AM -13.5031 -52.1878 152° Southeast  Level FlightAware Approximate
Mon 05:11:00 AM -13.6244 -52.1217 152° Southeast  Level FlightAware Approximate
Mon 05:12:00 AM -13.7458 -52.0556 152° Southeast  Level FlightAware Approximate
Mon 05:13:00 AM -13.8671 -51.9895 152° Southeast  Level FlightAware Approximate
Mon 05:14:00 AM -13.9884 -51.9232 152° Southeast  Level FlightAware Approximate
Mon 05:15:00 AM -14.1097 -51.8569 152° Southeast  Level FlightAware Approximate
Mon 05:16:00 AM -14.2309 -51.7905 152° Southeast  Level FlightAware Approximate
Mon 05:17:00 AM -14.3522 -51.7241 152° Southeast  Level FlightAware Approximate
Mon 05:18:00 AM -14.4734 -51.6576 152° Southeast  Level FlightAware Approximate
Mon 05:19:00 AM -14.5946 -51.5910 152° Southeast  Level FlightAware Approximate
Mon 05:20:00 AM -14.7158 -51.5243 152° Southeast  Level FlightAware Approximate
Mon 05:21:00 AM -14.8369 -51.4575 152° Southeast  Level FlightAware Approximate
Mon 05:22:00 AM -14.9581 -51.3907 152° Southeast  Level FlightAware Approximate
Mon 05:23:00 AM -15.0792 -51.3238 152° Southeast  Level FlightAware Approximate
Mon 05:24:00 AM -15.2003 -51.2568 152° Southeast  Level FlightAware Approximate
Mon 05:25:00 AM -15.3214 -51.1898 152° Southeast  Level FlightAware Approximate
Mon 05:26:00 AM -15.4425 -51.1227 152° Southeast  Level FlightAware Approximate
Mon 05:27:00 AM -15.5635 -51.0555 152° Southeast  Level FlightAware Approximate
Mon 05:28:00 AM -15.6846 -50.9882 152° Southeast  Level FlightAware Approximate
Mon 05:29:00 AM -15.8056 -50.9208 152° Southeast  Level FlightAware Approximate
Mon 05:30:00 AM -15.9266 -50.8533 152° Southeast  Level FlightAware Approximate
Mon 05:31:00 AM -16.0475 -50.7858 152° Southeast  Level FlightAware Approximate
Mon 05:32:00 AM -16.1685 -50.7182 152° Southeast  Level FlightAware Approximate
Mon 05:33:00 AM -16.2894 -50.6505 152° Southeast  Level FlightAware Approximate
Mon 05:34:00 AM -16.4103 -50.5827 152° Southeast  Level FlightAware Approximate
Mon 05:35:00 AM -16.5312 -50.5149 152° Southeast  Level FlightAware Approximate
Mon 05:36:00 AM -16.6520 -50.4469 152° Southeast  Level FlightAware Approximate
Mon 05:37:00 AM -16.7729 -50.3789 152° Southeast  Level FlightAware Approximate
Mon 05:37:22 AM -19.3390 -49.3100 152° Southeast 39,000  Level FlightAware ADS-B
Mon 05:37:37 AM -19.3800 -49.2870 152° Southeast 512 589 39,000  Level FlightAware ADS-B
Mon 05:38:17 AM -19.4710 -49.2360 152° Southeast 512 589 39,000  Level FlightAware ADS-B
Mon 05:38:52 AM -19.5270 -49.2060 153° Southeast 513 590 39,000  Level FlightAware ADS-B
Mon 05:39:37 AM -19.6350 -49.1460 152° Southeast 514 592 39,000  Level FlightAware ADS-B
Mon 05:40:22 AM -19.7350 -49.0910 153° Southeast 513 590 39,000  Level FlightAware ADS-B
Mon 05:41:07 AM -19.8320 -49.0370 152° Southeast 513 590 39,000  Level FlightAware ADS-B
Mon 05:41:52 AM -19.9190 -48.9880 152° Southeast 513 590 39,000  Level FlightAware ADS-B
Mon 05:42:42 AM -20.0230 -48.9300 152° Southeast 511 588 39,000  Level FlightAware ADS-B
Mon 05:43:22 AM -20.1060 -48.8840 153° Southeast 510 587 39,000  Level FlightAware ADS-B
Mon 05:44:02 AM -20.1940 -48.8350 152° Southeast 509 586 39,000  Level FlightAware ADS-B
Mon 05:44:47 AM -20.2940 -48.7790 152° Southeast 509 586 39,000  Level FlightAware ADS-B
Mon 05:45:32 AM -20.3860 -48.7290 153° Southeast 508 585 39,000  Level FlightAware ADS-B
Mon 05:46:12 AM -20.4700 -48.6840 153° Southeast 508 585 39,000  Level FlightAware ADS-B
Mon 05:46:57 AM -20.5670 -48.6330 154° Southeast 508 585 39,000  Level FlightAware ADS-B
Mon 05:47:37 AM -20.6520 -48.5870 153° Southeast 508 585 39,000  Level FlightAware ADS-B
Mon 05:48:22 AM -20.7440 -48.5380 154° Southeast 507 583 39,000  Level FlightAware ADS-B
Mon 05:49:02 AM -20.8290 -48.4930 154° Southeast 507 583 39,000  Level FlightAware ADS-B
Mon 05:49:42 AM -20.9150 -48.4470 153° Southeast 508 585 39,000  Level FlightAware ADS-B
Mon 05:50:27 AM -21.0080 -48.3970 153° Southeast 509 586 39,000  Level FlightAware ADS-B
Mon 05:51:07 AM -21.0910 -48.3480 151° Southeast 517 595 39,000  Level FlightAware ADS-B
Mon 05:51:47 AM -21.1640 -48.2800 139° Southeast 528 608 39,000  Level FlightAware ADS-B
Mon 05:52:32 AM -21.2420 -48.1930 134° Southeast 529 609 39,000  Level FlightAware ADS-B
Mon 05:53:12 AM -21.3100 -48.1190 135° Southeast 524 603 39,000  Level FlightAware ADS-B
Mon 05:53:57 AM -21.3930 -48.0490 142° Southeast 523 602 39,000  Level FlightAware ADS-B
Mon 05:54:37 AM -21.4710 -47.9870 144° Southeast 521 600 39,000  Level FlightAware ADS-B
Mon 05:55:17 AM -21.5500 -47.9270 145° Southeast 523 602 39,000 -71 Level FlightAware ADS-B
Mon 05:56:02 AM -21.6390 -47.8560 143° Southeast 520 598 38,900 -1,059 Descending FlightAware ADS-B
Mon 05:56:42 AM -21.7160 -47.7940 143° Southeast 515 593 37,500 -2,471 Descending FlightAware ADS-B
Mon 05:57:27 AM -21.8010 -47.7260 143° Southeast 519 597 35,400 -2,824 Descending FlightAware ADS-B
Mon 05:58:07 AM -21.8770 -47.6640 143° Southeast 523 602 33,500 -2,471 Descending FlightAware ADS-B
Mon 05:58:52 AM -21.9650 -47.5930 143° Southeast 512 589 31,900 -2,118 Descending FlightAware ADS-B
Mon 05:59:32 AM -22.0380 -47.5340 143° Southeast 502 578 30,500 -2,175 Descending FlightAware ADS-B
Mon 06:00:12 AM -22.1140 -47.4720 143° Southeast 490 564 29,000 -2,100 Descending FlightAware ADS-B
Mon 06:00:52 AM -22.1810 -47.4190 144° Southeast 476 548 27,700 -1,976 Descending FlightAware ADS-B
Mon 06:01:37 AM -22.2620 -47.3530 143° Southeast 453 521 26,200 -1,933 Descending FlightAware ADS-B
Mon 06:02:22 AM -22.3300 -47.2980 143° Southeast 435 501 24,800 -1,835 Descending FlightAware ADS-B
Mon 06:03:02 AM -22.3940 -47.2470 144° Southeast 427 491 23,600 -1,800 Descending FlightAware ADS-B
Mon 06:03:42 AM -22.4580 -47.1940 143° Southeast 429 494 22,400 -1,835 Descending FlightAware ADS-B
Mon 06:04:27 AM -22.5250 -47.1400 143° Southeast 427 491 21,000 -1,835 Descending FlightAware ADS-B
Mon 06:05:07 AM -22.5910 -47.0930 147° Southeast 416 479 19,800 -1,765 Descending FlightAware ADS-B
Mon 06:05:52 AM -22.6680 -47.0590 158° South 402 463 18,500 -1,765 Descending FlightAware ADS-B
Mon 06:06:32 AM -22.7370 -47.0300 159° South 388 447 17,300 -1,725 Descending FlightAware ADS-B
Mon 06:07:12 AM -22.8040 -47.0020 159° South 362 417 16,200 -1,553 Descending FlightAware ADS-B
Mon 06:07:57 AM -22.8720 -46.9740 159° South 354 407 15,100 -1,800 Descending FlightAware ADS-B
Mon 06:08:32 AM -22.9270 -46.9510 159° South 337 388 13,800 -1,906 Descending FlightAware ADS-B
Mon 06:09:22 AM -22.9980 -46.9210 159° South 265 305 12,400 -1,667 Descending FlightAware ADS-B
Mon 06:10:02 AM -23.0460 -46.9010 159° South 279 321 11,300 -1,431 Descending FlightAware ADS-B
Mon 06:11:32 AM -23.1480 -46.8580 159° South 258 297 9,300 -1,021 Descending FlightAware ADS-B
Mon 06:13:57 AM -23.3130 -46.7880 129° Southeast 258 297 7,300 -791 Descending FlightAware ADS-B
Mon 06:14:00 AM -23.3590 -46.5697 129° Southeast  Level Estimated
Mon 06:15:12 AM -23.3930 -46.7430 153° Southeast 256 295 6,400  Level FlightAware ADS-B
Mon 06:16:22 AM -23.4530 -46.6790 136° Southeast 246 283 5,200 -845 Descending FlightAware ADS-B
Mon 06:18:00 AM -23.4321 -46.4695 84° East  Level Estimated
Mon 06:18:52 AM -23.4540 -46.5430 84° East 148 170 3,300  Level FlightAware ADS-B
Mon 06:21:00 AM -23.4321 -46.4695 155° Southeast  Level Estimated

Login

Don't have an account? Register now (free) for customized features, flight alerts, and more!